WMT3345 LROP-LRCL
Flight info
| Callsign | WMT3345 |
|---|---|
| Flight time | 0h 38m |
| Altitude | 30000 |
| Route | BUKEL DCT CHU DCT AKUPO |
| Aircraft | A321/M-SDE3FGHIRWY/LB1 |
Departure
| Time | 2026-04-25 08:40 |
|---|---|
| Airport | Bucharest Henri Coandă International Airport (LROP) |
Arrival
| Time | 2026-04-25 09:19 |
|---|---|
| Airport | Avram Iancu Cluj International Airport (LRCL) |
| Time | Latitude | Longitude | Altitude | Speed | Heading |
|---|---|---|---|---|---|
| 2026-04-25 08:11 | 44.56891 | 26.08864 | 320 ft | 0 kts | 173° |
| 2026-04-25 08:33 | 44.56890 | 26.08865 | 322 ft | 0 kts | 173° |
| 2026-04-25 08:33 | 44.56883 | 26.08866 | 322 ft | 2 kts | 173° |
| 2026-04-25 08:33 | 44.56869 | 26.08868 | 322 ft | 3 kts | 173° |
| 2026-04-25 08:34 | 44.56850 | 26.08865 | 322 ft | 3 kts | 207° |
| 2026-04-25 08:34 | 44.56838 | 26.08834 | 321 ft | 5 kts | 249° |
| 2026-04-25 08:34 | 44.56832 | 26.08777 | 322 ft | 7 kts | 263° |
| 2026-04-25 08:34 | 44.56826 | 26.08696 | 322 ft | 10 kts | 263° |
| 2026-04-25 08:35 | 44.56820 | 26.08626 | 322 ft | 5 kts | 264° |
| 2026-04-25 08:35 | 44.56830 | 26.08576 | 322 ft | 6 kts | 307° |
| 2026-04-25 08:35 | 44.56877 | 26.08551 | 322 ft | 8 kts | 333° |
| 2026-04-25 08:35 | 44.56894 | 26.08471 | 322 ft | 10 kts | 265° |
| 2026-04-25 08:36 | 44.56871 | 26.08375 | 322 ft | 7 kts | 243° |
| 2026-04-25 08:36 | 44.56847 | 26.08310 | 322 ft | 8 kts | 243° |
| 2026-04-25 08:36 | 44.56820 | 26.08237 | 322 ft | 9 kts | 243° |
| 2026-04-25 08:36 | 44.56790 | 26.08157 | 322 ft | 10 kts | 243° |
| 2026-04-25 08:37 | 44.56767 | 26.08065 | 322 ft | 10 kts | 254° |
| 2026-04-25 08:37 | 44.56746 | 26.07964 | 322 ft | 11 kts | 255° |
| 2026-04-25 08:37 | 44.56725 | 26.07854 | 322 ft | 12 kts | 254° |
| 2026-04-25 08:37 | 44.56709 | 26.07773 | 322 ft | 7 kts | 255° |
| 2026-04-25 08:38 | 44.56694 | 26.07707 | 322 ft | 7 kts | 244° |
| 2026-04-25 08:38 | 44.56653 | 26.07668 | 322 ft | 8 kts | 192° |
| 2026-04-25 08:38 | 44.56608 | 26.07670 | 321 ft | 5 kts | 174° |
| 2026-04-25 08:38 | 44.56569 | 26.07676 | 322 ft | 6 kts | 174° |
| 2026-04-25 08:39 | 44.56525 | 26.07682 | 322 ft | 7 kts | 174° |
| 2026-04-25 08:39 | 44.56477 | 26.07700 | 323 ft | 7 kts | 141° |
| 2026-04-25 08:39 | 44.56471 | 26.07761 | 323 ft | 7 kts | 85° |
| 2026-04-25 08:39 | 44.56478 | 26.07851 | 324 ft | 23 kts | 84° |
| 2026-04-25 08:40 | 44.56520 | 26.08405 | 324 ft | 91 kts | 84° |
| 2026-04-25 08:40 | 44.56607 | 26.09564 | 322 ft | 145 kts | 84° |
| 2026-04-25 08:40 | 44.56725 | 26.11133 | 625 ft | 164 kts | 84° |
| 2026-04-25 08:40 | 44.56845 | 26.12750 | 1209 ft | 170 kts | 85° |
| 2026-04-25 08:41 | 44.56976 | 26.14452 | 1741 ft | 182 kts | 85° |
| 2026-04-25 08:41 | 44.57118 | 26.16281 | 2125 ft | 196 kts | 85° |
| 2026-04-25 08:41 | 44.57218 | 26.17582 | 2228 ft | 210 kts | 85° |
| 2026-04-25 08:41 | 44.57382 | 26.19764 | 2309 ft | 239 kts | 85° |
| 2026-04-25 08:42 | 44.57560 | 26.22162 | 2798 ft | 252 kts | 85° |
| 2026-04-25 08:42 | 44.57742 | 26.24633 | 3533 ft | 258 kts | 85° |
| 2026-04-25 08:42 | 44.57926 | 26.27177 | 4228 ft | 264 kts | 85° |
| 2026-04-25 08:42 | 44.58118 | 26.29767 | 4944 ft | 270 kts | 84° |
| 2026-04-25 08:43 | 44.58315 | 26.32407 | 5624 ft | 275 kts | 84° |
| 2026-04-25 08:43 | 44.58690 | 26.35048 | 6310 ft | 279 kts | 65° |
| 2026-04-25 08:43 | 44.59850 | 26.37198 | 6910 ft | 280 kts | 35° |
| 2026-04-25 08:43 | 44.61610 | 26.38294 | 7543 ft | 280 kts | 6° |
| 2026-04-25 08:44 | 44.63529 | 26.38079 | 8196 ft | 278 kts | 337° |
| 2026-04-25 08:44 | 44.65136 | 26.36628 | 8881 ft | 276 kts | 313° |
| 2026-04-25 08:44 | 44.66475 | 26.34693 | 9599 ft | 278 kts | 311° |
| 2026-04-25 08:44 | 44.67956 | 26.32925 | 10267 ft | 283 kts | 326° |
| 2026-04-25 08:45 | 44.69777 | 26.31844 | 10865 ft | 290 kts | 344° |
| 2026-04-25 08:45 | 44.71819 | 26.31452 | 11225 ft | 306 kts | 351° |
| 2026-04-25 08:45 | 44.74014 | 26.31131 | 11357 ft | 327 kts | 351° |
| 2026-04-25 08:45 | 44.76352 | 26.30800 | 11493 ft | 347 kts | 352° |
| 2026-04-25 08:46 | 44.78781 | 26.30256 | 11710 ft | 359 kts | 342° |
| 2026-04-25 08:46 | 44.81101 | 26.29002 | 12097 ft | 364 kts | 330° |
| 2026-04-25 08:46 | 44.83216 | 26.27033 | 12639 ft | 365 kts | 318° |
| 2026-04-25 08:46 | 44.84977 | 26.24481 | 13169 ft | 365 kts | 306° |
| 2026-04-25 08:47 | 44.86374 | 26.21492 | 13736 ft | 367 kts | 300° |
| 2026-04-25 08:47 | 44.87718 | 26.18428 | 14233 ft | 369 kts | 300° |
| 2026-04-25 08:47 | 44.89077 | 26.15332 | 14756 ft | 372 kts | 300° |
| 2026-04-25 08:47 | 44.90441 | 26.12222 | 15252 ft | 374 kts | 301° |
| 2026-04-25 08:48 | 44.91816 | 26.09094 | 15778 ft | 376 kts | 301° |
| 2026-04-25 08:48 | 44.93200 | 26.05949 | 16292 ft | 379 kts | 301° |
| 2026-04-25 08:48 | 44.94596 | 26.02777 | 16837 ft | 381 kts | 301° |
| 2026-04-25 08:48 | 44.95999 | 25.99590 | 17371 ft | 384 kts | 301° |
| 2026-04-25 08:49 | 44.97412 | 25.96376 | 17948 ft | 386 kts | 301° |
| 2026-04-25 08:49 | 44.98830 | 25.93142 | 18481 ft | 388 kts | 301° |
| 2026-04-25 08:49 | 45.00245 | 25.89896 | 18979 ft | 389 kts | 301° |
| 2026-04-25 08:49 | 45.01668 | 25.86628 | 19472 ft | 391 kts | 301° |
| 2026-04-25 08:50 | 45.03096 | 25.83347 | 19985 ft | 392 kts | 301° |
| 2026-04-25 08:50 | 45.04520 | 25.80071 | 20493 ft | 392 kts | 301° |
| 2026-04-25 08:50 | 45.05959 | 25.76791 | 21021 ft | 392 kts | 303° |
| 2026-04-25 08:50 | 45.07654 | 25.73773 | 21545 ft | 392 kts | 313° |
| 2026-04-25 08:51 | 45.09697 | 25.71214 | 22070 ft | 393 kts | 323° |
| 2026-04-25 08:51 | 45.11986 | 25.69193 | 22590 ft | 393 kts | 329° |
| 2026-04-25 08:51 | 45.14399 | 25.67275 | 23136 ft | 393 kts | 329° |
| 2026-04-25 08:51 | 45.16754 | 25.65394 | 23635 ft | 393 kts | 329° |
| 2026-04-25 08:52 | 45.19136 | 25.63484 | 24050 ft | 393 kts | 329° |
| 2026-04-25 08:52 | 45.21517 | 25.61569 | 24468 ft | 394 kts | 329° |
| 2026-04-25 08:52 | 45.23893 | 25.59651 | 24896 ft | 393 kts | 329° |
| 2026-04-25 08:52 | 45.26267 | 25.57732 | 25328 ft | 393 kts | 329° |
| 2026-04-25 08:53 | 45.28638 | 25.55814 | 25775 ft | 392 kts | 329° |
| 2026-04-25 08:53 | 45.31010 | 25.53895 | 26218 ft | 391 kts | 329° |
| 2026-04-25 08:53 | 45.33370 | 25.51983 | 26670 ft | 390 kts | 329° |
| 2026-04-25 08:53 | 45.35711 | 25.50088 | 27128 ft | 387 kts | 329° |
| 2026-04-25 08:54 | 45.38061 | 25.48184 | 27422 ft | 391 kts | 329° |
| 2026-04-25 08:54 | 45.40440 | 25.46252 | 27553 ft | 397 kts | 329° |
| 2026-04-25 08:54 | 45.42861 | 25.44289 | 27685 ft | 404 kts | 330° |
| 2026-04-25 08:54 | 45.45322 | 25.42295 | 27822 ft | 410 kts | 330° |
| 2026-04-25 08:55 | 45.47819 | 25.40272 | 27988 ft | 416 kts | 330° |
| 2026-04-25 08:55 | 45.52840 | 25.36183 | 28046 ft | 419 kts | 329° |
| 2026-04-25 08:56 | 45.57885 | 25.32056 | 28046 ft | 417 kts | 329° |
| 2026-04-25 08:56 | 45.62923 | 25.27934 | 28041 ft | 417 kts | 329° |
| 2026-04-25 08:57 | 45.67952 | 25.23818 | 28052 ft | 417 kts | 329° |
| 2026-04-25 08:57 | 45.72990 | 25.19686 | 28037 ft | 417 kts | 329° |
| 2026-04-25 08:58 | 45.78016 | 25.15552 | 28038 ft | 417 kts | 329° |
| 2026-04-25 08:58 | 45.83041 | 25.11408 | 28033 ft | 417 kts | 329° |
| 2026-04-25 08:59 | 45.88059 | 25.07246 | 28039 ft | 417 kts | 329° |
| 2026-04-25 08:59 | 45.93081 | 25.03080 | 28033 ft | 417 kts | 329° |
| 2026-04-25 09:00 | 45.98106 | 24.98906 | 28046 ft | 417 kts | 329° |
| 2026-04-25 09:00 | 46.03130 | 24.94733 | 28053 ft | 417 kts | 329° |
| 2026-04-25 09:00 | 46.05642 | 24.92640 | 27895 ft | 417 kts | 329° |
| 2026-04-25 09:01 | 46.08149 | 24.90550 | 27629 ft | 417 kts | 329° |
| 2026-04-25 09:01 | 46.10671 | 24.88447 | 27367 ft | 418 kts | 329° |
| 2026-04-25 09:01 | 46.13189 | 24.86345 | 27111 ft | 419 kts | 329° |
| 2026-04-25 09:01 | 46.15718 | 24.84231 | 26855 ft | 420 kts | 329° |
| 2026-04-25 09:02 | 46.18250 | 24.82221 | 26605 ft | 422 kts | 333° |
| 2026-04-25 09:02 | 46.20993 | 24.80673 | 26325 ft | 423 kts | 339° |
| 2026-04-25 09:02 | 46.23761 | 24.79261 | 25684 ft | 420 kts | 339° |
| 2026-04-25 09:02 | 46.26507 | 24.77857 | 25057 ft | 418 kts | 339° |
| 2026-04-25 09:03 | 46.29244 | 24.76456 | 24415 ft | 416 kts | 339° |
| 2026-04-25 09:03 | 46.31967 | 24.75059 | 23791 ft | 414 kts | 338° |
| 2026-04-25 09:03 | 46.34679 | 24.73664 | 23115 ft | 412 kts | 338° |
| 2026-04-25 09:03 | 46.37367 | 24.72280 | 22480 ft | 408 kts | 338° |
| 2026-04-25 09:04 | 46.40028 | 24.70908 | 21865 ft | 404 kts | 338° |
| 2026-04-25 09:04 | 46.42664 | 24.69548 | 21276 ft | 400 kts | 338° |
| 2026-04-25 09:04 | 46.45278 | 24.68200 | 20688 ft | 397 kts | 338° |
| 2026-04-25 09:04 | 46.47866 | 24.66864 | 20100 ft | 394 kts | 338° |
| 2026-04-25 09:05 | 46.50432 | 24.65537 | 19543 ft | 391 kts | 338° |
| 2026-04-25 09:05 | 46.52991 | 24.64214 | 18989 ft | 389 kts | 338° |
| 2026-04-25 09:05 | 46.55530 | 24.62899 | 18451 ft | 386 kts | 339° |
| 2026-04-25 09:05 | 46.58058 | 24.61587 | 17880 ft | 384 kts | 339° |
| 2026-04-25 09:06 | 46.60562 | 24.60283 | 17365 ft | 381 kts | 339° |
| 2026-04-25 09:06 | 46.63044 | 24.58989 | 16852 ft | 377 kts | 339° |
| 2026-04-25 09:06 | 46.65500 | 24.57710 | 16339 ft | 373 kts | 339° |
| 2026-04-25 09:06 | 46.67936 | 24.56441 | 15840 ft | 370 kts | 339° |
| 2026-04-25 09:07 | 46.70296 | 24.55212 | 15599 ft | 346 kts | 339° |
| 2026-04-25 09:07 | 46.72500 | 24.54069 | 14964 ft | 330 kts | 339° |
| 2026-04-25 09:07 | 46.74617 | 24.52966 | 14439 ft | 327 kts | 339° |
| 2026-04-25 09:07 | 46.76753 | 24.51848 | 13944 ft | 326 kts | 339° |
| 2026-04-25 09:08 | 46.78882 | 24.50730 | 13421 ft | 324 kts | 339° |
| 2026-04-25 09:08 | 46.80996 | 24.49620 | 12885 ft | 321 kts | 339° |
| 2026-04-25 09:08 | 46.83085 | 24.48525 | 12367 ft | 318 kts | 338° |
| 2026-04-25 09:08 | 46.85152 | 24.47443 | 11867 ft | 312 kts | 338° |
| 2026-04-25 09:09 | 46.87169 | 24.46385 | 11374 ft | 304 kts | 338° |
| 2026-04-25 09:09 | 46.89123 | 24.45359 | 10879 ft | 294 kts | 338° |
| 2026-04-25 09:09 | 46.91017 | 24.44366 | 10397 ft | 285 kts | 338° |
| 2026-04-25 09:09 | 46.92857 | 24.43397 | 9918 ft | 277 kts | 337° |
| 2026-04-25 09:10 | 46.94654 | 24.42445 | 9380 ft | 272 kts | 336° |
| 2026-04-25 09:10 | 46.96263 | 24.41095 | 8880 ft | 265 kts | 316° |
| 2026-04-25 09:10 | 46.97422 | 24.39047 | 8481 ft | 261 kts | 298° |
| 2026-04-25 09:10 | 46.98044 | 24.36570 | 8097 ft | 260 kts | 279° |
| 2026-04-25 09:11 | 46.97457 | 24.31411 | 7363 ft | 263 kts | 246° |
| 2026-04-25 09:11 | 46.96664 | 24.29018 | 7081 ft | 261 kts | 246° |
| 2026-04-25 09:11 | 46.95878 | 24.26628 | 6808 ft | 260 kts | 246° |
| 2026-04-25 09:12 | 46.95098 | 24.24251 | 6550 ft | 259 kts | 246° |
| 2026-04-25 09:12 | 46.94329 | 24.21908 | 6307 ft | 258 kts | 246° |
| 2026-04-25 09:12 | 46.93554 | 24.19543 | 6041 ft | 257 kts | 246° |
| 2026-04-25 09:12 | 46.92781 | 24.17187 | 5790 ft | 257 kts | 246° |
| 2026-04-25 09:13 | 46.92002 | 24.14823 | 5531 ft | 257 kts | 245° |
| 2026-04-25 09:13 | 46.91224 | 24.12468 | 5269 ft | 257 kts | 245° |
| 2026-04-25 09:13 | 46.90446 | 24.10108 | 5011 ft | 257 kts | 245° |
| 2026-04-25 09:13 | 46.89670 | 24.07750 | 4753 ft | 257 kts | 245° |
| 2026-04-25 09:14 | 46.88897 | 24.05404 | 4502 ft | 255 kts | 244° |
| 2026-04-25 09:14 | 46.88125 | 24.03076 | 4238 ft | 255 kts | 244° |
| 2026-04-25 09:14 | 46.87350 | 24.00743 | 3985 ft | 255 kts | 244° |
| 2026-04-25 09:14 | 46.86579 | 23.98423 | 3723 ft | 252 kts | 244° |
| 2026-04-25 09:15 | 46.85815 | 23.96129 | 3476 ft | 251 kts | 244° |
| 2026-04-25 09:15 | 46.85059 | 23.93861 | 3257 ft | 245 kts | 243° |
| 2026-04-25 09:15 | 46.84332 | 23.91681 | 3158 ft | 233 kts | 243° |
| 2026-04-25 09:15 | 46.83627 | 23.89564 | 3057 ft | 232 kts | 244° |
| 2026-04-25 09:16 | 46.83028 | 23.87458 | 2983 ft | 219 kts | 249° |
| 2026-04-25 09:16 | 46.82567 | 23.85482 | 3016 ft | 191 kts | 251° |
| 2026-04-25 09:16 | 46.82182 | 23.83756 | 2973 ft | 173 kts | 251° |
| 2026-04-25 09:16 | 46.81823 | 23.82152 | 2819 ft | 160 kts | 251° |
| 2026-04-25 09:17 | 46.81146 | 23.79144 | 2446 ft | 154 kts | 251° |
| 2026-04-25 09:17 | 46.80810 | 23.77666 | 2263 ft | 153 kts | 250° |
| 2026-04-25 09:17 | 46.80472 | 23.76184 | 2024 ft | 154 kts | 251° |
| 2026-04-25 09:18 | 46.80141 | 23.74685 | 1803 ft | 157 kts | 252° |
| 2026-04-25 09:18 | 46.79810 | 23.73155 | 1599 ft | 158 kts | 252° |
| 2026-04-25 09:18 | 46.79469 | 23.71629 | 1417 ft | 159 kts | 252° |
| 2026-04-25 09:18 | 46.79119 | 23.70090 | 1176 ft | 160 kts | 253° |
| 2026-04-25 09:19 | 46.78782 | 23.68560 | 1025 ft | 147 kts | 252° |
| 2026-04-25 09:19 | 46.78562 | 23.67591 | 1035 ft | 43 kts | 252° |
| 2026-04-25 09:19 | 46.78511 | 23.67364 | 1037 ft | 22 kts | 251° |
| 2026-04-25 09:19 | 46.78475 | 23.67220 | 1039 ft | 14 kts | 240° |
| 2026-04-25 09:20 | 46.78388 | 23.67216 | 1038 ft | 15 kts | 145° |
| 2026-04-25 09:20 | 46.78345 | 23.67357 | 1037 ft | 17 kts | 87° |
| 2026-04-25 09:20 | 46.78368 | 23.67539 | 1036 ft | 19 kts | 79° |
| 2026-04-25 09:20 | 46.78395 | 23.67740 | 1035 ft | 21 kts | 78° |
| 2026-04-25 09:21 | 46.78414 | 23.67875 | 1034 ft | 9 kts | 78° |
| 2026-04-25 09:21 | 46.78427 | 23.67974 | 1034 ft | 11 kts | 78° |
| 2026-04-25 09:21 | 46.78443 | 23.68091 | 1033 ft | 13 kts | 78° |
| 2026-04-25 09:21 | 46.78461 | 23.68222 | 1032 ft | 14 kts | 79° |
| 2026-04-25 09:22 | 46.78472 | 23.68305 | 1032 ft | 8 kts | 79° |
| 2026-04-25 09:22 | 46.78484 | 23.68392 | 1031 ft | 10 kts | 78° |
| 2026-04-25 09:22 | 46.78498 | 23.68496 | 1031 ft | 11 kts | 78° |
| 2026-04-25 09:22 | 46.78515 | 23.68617 | 1030 ft | 13 kts | 78° |
| 2026-04-25 09:23 | 46.78534 | 23.68752 | 1029 ft | 14 kts | 78° |
| 2026-04-25 09:23 | 46.78554 | 23.68903 | 1026 ft | 16 kts | 79° |
| 2026-04-25 09:23 | 46.78575 | 23.69067 | 1026 ft | 17 kts | 79° |
| 2026-04-25 09:23 | 46.78592 | 23.69189 | 1027 ft | 6 kts | 78° |
| 2026-04-25 09:24 | 46.78600 | 23.69251 | 1025 ft | 5 kts | 78° |
| 2026-04-25 09:24 | 46.78594 | 23.69303 | 1023 ft | 6 kts | 132° |
| 2026-04-25 09:24 | 46.78582 | 23.69314 | 1022 ft | 0 kts | 145° |
| 2026-04-25 09:24 | 46.78582 | 23.69315 | 1022 ft | 1 kts | 144° |
| 2026-04-25 09:25 | 46.78572 | 23.69325 | 1025 ft | 0 kts | 144° |
| 2026-04-25 09:26 | 46.78572 | 23.69401 | 1026 ft | 0 kts | 193° |